createdAt,value
2018-07-05T00:01:22.650Z,20.80
2018-07-05T00:04:02.687Z,20.80
2018-07-05T00:06:43.226Z,20.80
2018-07-05T00:09:22.812Z,20.80
2018-07-05T00:12:02.528Z,20.80
2018-07-05T00:14:42.022Z,20.80
2018-07-05T00:17:21.514Z,20.80
2018-07-05T00:20:01.138Z,20.80
2018-07-05T00:22:40.974Z,20.70
2018-07-05T00:25:20.624Z,20.70
2018-07-05T00:28:00.378Z,20.70
2018-07-05T00:30:40.106Z,20.70
2018-07-05T00:33:19.824Z,20.60
2018-07-05T00:35:59.391Z,20.60
2018-07-05T00:38:38.982Z,20.60
2018-07-05T00:41:18.748Z,20.60
2018-07-05T00:43:58.456Z,20.50
2018-07-05T00:46:38.050Z,20.50
2018-07-05T00:49:17.626Z,20.50
2018-07-05T00:51:57.080Z,20.50
2018-07-05T00:54:36.635Z,20.40
2018-07-05T00:57:16.254Z,20.40
2018-07-05T00:59:56.024Z,20.30
2018-07-05T01:02:35.806Z,20.30
2018-07-05T01:05:15.422Z,20.30
2018-07-05T01:07:54.952Z,20.20
2018-07-05T01:10:34.713Z,20.20
2018-07-05T01:13:14.498Z,20.30
2018-07-05T01:15:54.096Z,20.30
2018-07-05T01:18:33.943Z,20.20
2018-07-05T01:21:13.626Z,20.30
2018-07-05T01:23:53.359Z,20.30
2018-07-05T01:26:33.182Z,20.20
2018-07-05T01:29:12.822Z,20.20
2018-07-05T01:31:52.397Z,20.10
2018-07-05T01:34:32.014Z,20.10
2018-07-05T01:37:11.690Z,20.10
2018-07-05T01:39:51.147Z,20.00
2018-07-05T01:45:04.380Z,20.00
2018-07-05T01:47:44.220Z,20.00
2018-07-05T01:50:23.978Z,20.00
2018-07-05T01:53:03.676Z,20.00
2018-07-05T01:55:43.380Z,20.00
2018-07-05T01:58:23.092Z,19.90
2018-07-05T02:03:36.342Z,19.80
2018-07-05T02:06:15.818Z,19.80
2018-07-05T02:08:55.402Z,19.80
2018-07-05T02:11:35.106Z,19.80
2018-07-05T02:14:14.849Z,19.80
2018-07-05T02:16:54.663Z,19.80
2018-07-05T02:19:34.401Z,19.70
2018-07-05T02:22:14.114Z,19.70
2018-07-05T02:24:53.877Z,19.70
2018-07-05T02:27:33.759Z,19.70
2018-07-05T02:30:13.340Z,19.70
2018-07-05T02:38:05.983Z,19.60
2018-07-05T02:40:45.528Z,19.60
2018-07-05T02:43:25.318Z,19.60
2018-07-05T02:46:05.662Z,19.60
2018-07-05T02:48:45.390Z,19.60
2018-07-05T02:51:25.253Z,19.60
2018-07-05T02:54:04.882Z,19.60
2018-07-05T02:56:44.536Z,19.60
2018-07-05T02:59:24.362Z,19.60
2018-07-05T03:04:37.787Z,19.50
2018-07-05T03:07:17.473Z,19.60
2018-07-05T03:09:57.088Z,19.60
2018-07-05T03:12:37.618Z,19.60
2018-07-05T03:15:17.226Z,19.60
2018-07-05T03:17:57.013Z,19.50
2018-07-05T03:20:37.020Z,19.50
2018-07-05T03:23:16.861Z,19.50
2018-07-05T03:25:56.456Z,19.50
2018-07-05T03:28:36.148Z,19.50
2018-07-05T03:31:16.678Z,19.50
2018-07-05T03:33:56.741Z,19.50
2018-07-05T03:36:36.682Z,19.60
2018-07-05T03:39:16.324Z,19.60
2018-07-05T03:41:55.960Z,19.70
2018-07-05T03:44:35.714Z,19.70
2018-07-05T03:47:15.508Z,19.70
2018-07-05T03:49:55.060Z,19.80
2018-07-05T03:52:34.701Z,19.90
2018-07-05T03:55:14.264Z,20.00
2018-07-05T03:57:53.856Z,20.10
2018-07-05T04:00:33.478Z,20.10
2018-07-05T04:03:13.048Z,20.20
2018-07-05T04:05:52.748Z,20.40
2018-07-05T04:08:32.402Z,20.70
2018-07-05T04:11:12.260Z,20.90
2018-07-05T04:13:52.090Z,21.20
2018-07-05T04:16:31.694Z,21.40
2018-07-05T04:19:11.166Z,21.60
2018-07-05T04:21:51.313Z,21.80
2018-07-05T04:24:31.000Z,22.00
2018-07-05T04:29:45.190Z,22.20
2018-07-05T04:32:24.989Z,22.20
2018-07-05T04:35:05.380Z,22.20
2018-07-05T04:37:46.899Z,22.20
2018-07-05T04:40:26.634Z,22.30
2018-07-05T04:43:06.252Z,22.30
2018-07-05T04:45:45.986Z,22.40
2018-07-05T04:48:25.689Z,22.40
2018-07-05T04:51:06.176Z,22.40
2018-07-05T04:53:45.710Z,22.50
2018-07-05T04:56:25.679Z,22.50
2018-07-05T04:59:05.560Z,22.60
2018-07-05T05:01:45.892Z,22.70
2018-07-05T05:04:25.699Z,22.80
2018-07-05T05:07:06.564Z,22.70
2018-07-05T05:09:46.334Z,22.70
2018-07-05T05:12:25.955Z,22.70
2018-07-05T05:15:05.559Z,22.70
2018-07-05T05:17:45.206Z,22.80
2018-07-05T05:20:24.941Z,23.50
2018-07-05T05:23:04.536Z,24.60
2018-07-05T05:25:43.951Z,25.60
2018-07-05T05:28:23.485Z,26.50
2018-07-05T05:31:03.189Z,27.20
2018-07-05T05:33:42.851Z,27.70
2018-07-05T05:36:22.606Z,28.20
2018-07-05T05:39:02.368Z,28.50
2018-07-05T05:41:42.027Z,28.70
2018-07-05T05:44:21.674Z,28.90
2018-07-05T05:47:01.321Z,28.90
2018-07-05T05:49:41.222Z,29.10
2018-07-05T05:52:21.009Z,29.30
2018-07-05T05:55:00.577Z,29.50
2018-07-05T05:57:40.255Z,29.60
2018-07-05T06:00:20.047Z,29.80
2018-07-05T06:02:59.475Z,29.90
2018-07-05T06:05:39.127Z,30.00
2018-07-05T06:08:18.680Z,30.10
2018-07-05T06:10:59.954Z,30.20
2018-07-05T06:13:39.625Z,30.40
2018-07-05T06:16:19.155Z,30.50
2018-07-05T06:18:58.875Z,30.60
2018-07-05T06:21:39.111Z,30.70
2018-07-05T06:24:18.865Z,30.80
2018-07-05T06:26:58.520Z,30.60
2018-07-05T06:32:11.845Z,29.60
2018-07-05T06:34:51.839Z,29.20
2018-07-05T06:37:31.505Z,29.10
2018-07-05T06:40:11.251Z,29.30
2018-07-05T06:42:51.134Z,29.60
2018-07-05T06:45:30.710Z,30.10
2018-07-05T06:48:10.596Z,30.40
2018-07-05T06:50:50.294Z,30.70
2018-07-05T06:53:29.859Z,30.80
2018-07-05T06:56:09.669Z,31.10
2018-07-05T06:58:49.249Z,31.10
2018-07-05T07:01:28.894Z,30.90
2018-07-05T07:04:08.585Z,30.70
2018-07-05T07:06:48.748Z,30.40
2018-07-05T07:12:02.146Z,30.00
2018-07-05T07:14:41.674Z,29.90
2018-07-05T07:17:21.478Z,29.90
2018-07-05T07:20:01.144Z,29.80
2018-07-05T07:22:40.906Z,29.70
2018-07-05T07:25:20.720Z,29.50
2018-07-05T07:28:00.534Z,29.80
2018-07-05T07:30:40.348Z,29.90
2018-07-05T07:33:20.110Z,30.20
2018-07-05T07:36:00.045Z,30.30
2018-07-05T07:38:39.725Z,30.60
2018-07-05T07:41:19.358Z,30.60
2018-07-05T07:43:46.584Z,30.80
2018-07-05T07:46:13.794Z,31.00
2018-07-05T07:48:41.003Z,31.00
2018-07-05T07:51:08.224Z,30.90
2018-07-05T07:53:35.392Z,31.00
2018-07-05T07:56:02.694Z,31.00
2018-07-05T07:58:29.928Z,31.30
2018-07-05T08:00:58.170Z,31.70
2018-07-05T08:03:25.451Z,31.90
2018-07-05T08:05:52.638Z,32.10
2018-07-05T08:08:20.117Z,31.90
2018-07-05T08:10:47.474Z,31.80
2018-07-05T08:13:14.723Z,31.90
2018-07-05T08:15:41.950Z,31.90
2018-07-05T08:20:36.639Z,31.90
2018-07-05T08:23:03.862Z,31.80
2018-07-05T08:25:31.047Z,31.70
2018-07-05T08:27:58.284Z,31.60
2018-07-05T08:30:25.488Z,31.60
2018-07-05T08:35:20.181Z,31.60
2018-07-05T08:37:47.421Z,31.70
2018-07-05T08:40:14.630Z,31.70
2018-07-05T08:45:09.417Z,31.40
2018-07-05T08:47:36.621Z,31.20
2018-07-05T08:50:03.882Z,30.90
2018-07-05T08:52:31.102Z,30.90
2018-07-05T08:54:58.315Z,30.80
2018-07-05T08:57:25.527Z,30.70
2018-07-05T09:02:26.482Z,30.40
2018-07-05T09:04:53.943Z,30.30
2018-07-05T09:07:21.273Z,30.30
2018-07-05T09:09:48.559Z,30.20
2018-07-05T09:12:15.820Z,30.00
2018-07-05T09:14:43.009Z,30.00
2018-07-05T09:17:11.538Z,29.90
2018-07-05T09:19:38.809Z,29.90
2018-07-05T09:22:06.067Z,29.90
2018-07-05T09:24:33.327Z,29.90
2018-07-05T09:27:00.523Z,30.00
2018-07-05T09:29:27.747Z,29.90
2018-07-05T09:31:54.960Z,30.00
2018-07-05T09:34:22.203Z,29.90
2018-07-05T09:36:49.419Z,29.80
2018-07-05T09:39:16.799Z,29.70
2018-07-05T09:41:44.069Z,29.60
2018-07-05T09:44:11.455Z,29.60
2018-07-05T09:46:38.674Z,29.60
2018-07-05T09:51:33.483Z,30.00
2018-07-05T09:54:00.722Z,30.10
2018-07-05T09:56:27.938Z,30.30
2018-07-05T09:58:55.165Z,30.50
2018-07-05T10:03:49.971Z,30.60
2018-07-05T10:06:17.433Z,30.60
2018-07-05T10:08:44.716Z,30.60
2018-07-05T10:11:11.945Z,30.70
2018-07-05T10:13:39.330Z,30.70
2018-07-05T10:16:06.444Z,30.80
2018-07-05T10:18:33.720Z,30.80
2018-07-05T10:21:00.924Z,30.80
2018-07-05T10:23:29.561Z,30.80
2018-07-05T10:25:56.932Z,30.70
2018-07-05T10:28:24.188Z,30.60
2018-07-05T10:31:04.000Z,30.40
2018-07-05T10:33:43.653Z,30.30
2018-07-05T10:36:10.880Z,30.20
2018-07-05T10:38:38.131Z,30.30
2018-07-05T10:41:17.975Z,30.30
2018-07-05T10:43:57.580Z,30.30
2018-07-05T10:46:37.394Z,30.40
2018-07-05T10:49:17.212Z,30.40
2018-07-05T10:51:57.043Z,30.30
2018-07-05T10:54:36.819Z,30.30
2018-07-05T10:57:16.425Z,30.40
2018-07-05T10:59:56.266Z,30.40
2018-07-05T11:02:35.896Z,30.40
2018-07-05T11:05:15.804Z,30.50
2018-07-05T11:07:55.456Z,30.70
2018-07-05T11:10:35.123Z,30.80
2018-07-05T11:13:14.938Z,30.90
2018-07-05T11:15:54.618Z,30.90
2018-07-05T11:18:34.764Z,31.00
2018-07-05T11:21:14.569Z,31.10
2018-07-05T11:23:54.376Z,31.10
2018-07-05T11:26:34.055Z,30.90
2018-07-05T11:29:13.875Z,30.80
2018-07-05T11:31:53.654Z,30.70
2018-07-05T11:34:33.476Z,30.70
2018-07-05T11:37:12.909Z,30.90
2018-07-05T11:39:52.601Z,30.90
2018-07-05T11:42:32.342Z,30.90
2018-07-05T11:45:11.935Z,30.80
2018-07-05T11:47:51.703Z,30.80
2018-07-05T11:50:31.375Z,30.80
2018-07-05T11:53:10.960Z,30.80
2018-07-05T11:55:50.605Z,30.80
2018-07-05T11:58:30.280Z,30.80
2018-07-05T12:01:09.928Z,30.90
2018-07-05T12:03:49.570Z,30.90
2018-07-05T12:06:30.437Z,30.80
2018-07-05T12:09:10.487Z,30.70
2018-07-05T12:11:50.644Z,30.70
2018-07-05T12:14:30.447Z,30.70
2018-07-05T12:17:10.024Z,30.60
2018-07-05T12:19:49.629Z,30.50
2018-07-05T12:22:29.247Z,30.50
2018-07-05T12:25:11.171Z,30.60
2018-07-05T12:27:51.835Z,30.60
2018-07-05T12:30:31.494Z,30.60
2018-07-05T12:33:11.133Z,30.70
2018-07-05T12:35:50.859Z,30.80
2018-07-05T12:38:31.061Z,30.80
2018-07-05T12:41:10.931Z,30.70
2018-07-05T12:43:50.471Z,30.80
2018-07-05T12:46:30.351Z,30.80
2018-07-05T12:49:11.355Z,30.90
2018-07-05T12:51:51.312Z,31.00
2018-07-05T12:54:31.115Z,31.10
2018-07-05T12:57:10.717Z,31.20
2018-07-05T12:59:50.397Z,31.20
2018-07-05T13:02:31.313Z,31.00
2018-07-05T13:05:11.029Z,30.70
2018-07-05T13:07:50.889Z,30.50
2018-07-05T13:10:30.629Z,30.40
2018-07-05T13:13:10.141Z,30.50
2018-07-05T13:15:49.755Z,30.60
2018-07-05T13:18:29.238Z,30.70
2018-07-05T13:21:08.841Z,30.80
2018-07-05T13:23:48.605Z,30.80
2018-07-05T13:26:28.350Z,30.80
2018-07-05T13:29:07.862Z,31.00
2018-07-05T13:31:47.366Z,31.10
2018-07-05T13:34:27.110Z,31.30
2018-07-05T13:37:08.705Z,31.50
2018-07-05T13:39:49.213Z,31.60
2018-07-05T13:42:28.936Z,31.50
2018-07-05T13:45:08.736Z,31.10
2018-07-05T13:47:48.282Z,31.10
2018-07-05T13:50:27.974Z,31.20
2018-07-05T13:53:07.750Z,31.20
2018-07-05T13:55:47.466Z,31.00
2018-07-05T13:58:27.310Z,30.80
2018-07-05T14:01:06.884Z,30.50
2018-07-05T14:03:47.050Z,30.50
2018-07-05T14:06:26.968Z,30.50
2018-07-05T14:09:08.038Z,30.40
2018-07-05T14:11:47.386Z,30.30
2018-07-05T14:14:27.317Z,30.30
2018-07-05T14:17:06.872Z,30.50
2018-07-05T14:22:20.051Z,31.10
2018-07-05T14:25:00.601Z,31.30
2018-07-05T14:27:40.369Z,31.20
2018-07-05T14:30:20.192Z,31.20
2018-07-05T14:32:59.616Z,31.10
2018-07-05T14:35:39.679Z,30.80
2018-07-05T14:38:19.378Z,30.80
2018-07-05T14:40:59.546Z,30.70
2018-07-05T14:43:41.211Z,30.60
2018-07-05T14:46:20.935Z,30.50
2018-07-05T14:49:00.700Z,30.50
2018-07-05T14:54:13.985Z,30.50
2018-07-05T14:56:53.812Z,30.50
2018-07-05T14:59:33.599Z,30.50
2018-07-05T15:02:13.461Z,30.50
2018-07-05T15:04:54.981Z,30.50
2018-07-05T15:07:34.603Z,30.40
2018-07-05T15:10:14.581Z,30.40
2018-07-05T15:12:55.133Z,30.50
2018-07-05T15:15:34.827Z,30.50
2018-07-05T15:18:14.543Z,30.50
2018-07-05T15:20:54.205Z,30.40
2018-07-05T15:23:33.829Z,30.20
2018-07-05T15:26:13.813Z,30.20
2018-07-05T15:28:53.583Z,30.10
2018-07-05T15:31:33.587Z,30.00
2018-07-05T15:34:13.637Z,30.00
2018-07-05T15:36:53.189Z,30.10
2018-07-05T15:39:32.988Z,30.10
2018-07-05T15:42:12.756Z,30.00
2018-07-05T15:45:56.022Z,30.00
2018-07-05T15:48:36.040Z,29.90
2018-07-05T15:51:15.988Z,29.70
2018-07-05T15:53:55.694Z,29.60
2018-07-05T15:56:35.864Z,29.50
2018-07-05T15:59:15.535Z,29.40
2018-07-05T16:01:55.280Z,29.20
2018-07-05T16:04:35.030Z,29.20
2018-07-05T16:07:14.600Z,29.20
2018-07-05T16:09:54.302Z,29.30
2018-07-05T16:12:33.842Z,29.40
2018-07-05T16:15:13.675Z,29.30
2018-07-05T16:17:55.892Z,29.40
2018-07-05T16:20:35.946Z,29.30
2018-07-05T16:23:15.572Z,29.30
2018-07-05T16:25:55.318Z,29.30
2018-07-05T16:28:34.995Z,29.20
2018-07-05T16:31:14.729Z,29.20
2018-07-05T16:33:55.332Z,29.10
2018-07-05T16:36:35.006Z,29.10
2018-07-05T16:39:14.800Z,29.10
2018-07-05T16:41:54.299Z,29.10
2018-07-05T16:44:34.221Z,29.00
2018-07-05T16:47:14.048Z,28.90
2018-07-05T16:49:53.794Z,28.90
2018-07-05T16:52:33.606Z,28.90
2018-07-05T16:55:13.472Z,28.80
2018-07-05T16:57:53.149Z,28.80
2018-07-05T17:00:32.862Z,28.80
2018-07-05T17:03:12.666Z,28.70
2018-07-05T17:05:52.988Z,28.70
2018-07-05T17:08:33.456Z,28.60
2018-07-05T17:11:13.124Z,28.50
2018-07-05T17:13:52.832Z,28.50
2018-07-05T17:16:32.598Z,28.50
2018-07-05T17:19:12.186Z,28.50
2018-07-05T17:21:51.768Z,28.40
2018-07-05T17:24:31.507Z,28.40
2018-07-05T17:27:11.187Z,28.40
2018-07-05T17:29:51.176Z,28.30
2018-07-05T17:32:30.787Z,28.30
2018-07-05T17:35:10.584Z,28.30
2018-07-05T17:37:50.376Z,28.20
2018-07-05T17:40:30.150Z,28.20
2018-07-05T17:43:09.819Z,28.10
2018-07-05T17:45:49.571Z,28.10
2018-07-05T17:48:29.237Z,28.10
2018-07-05T17:51:09.054Z,28.00
2018-07-05T17:53:48.758Z,27.90
2018-07-05T17:56:28.495Z,27.90
2018-07-05T17:59:08.106Z,27.80
2018-07-05T18:01:47.902Z,27.70
2018-07-05T18:04:27.721Z,27.70
2018-07-05T18:07:07.381Z,27.70
2018-07-05T18:09:47.090Z,27.60
2018-07-05T18:12:27.005Z,27.60
2018-07-05T18:15:06.594Z,27.50
2018-07-05T18:17:46.228Z,27.40
2018-07-05T18:20:25.912Z,27.40
2018-07-05T18:23:05.571Z,27.30
2018-07-05T18:25:45.264Z,27.30
2018-07-05T18:28:25.035Z,27.20
2018-07-05T18:31:04.628Z,27.20
2018-07-05T18:33:44.474Z,27.10
2018-07-05T18:36:24.098Z,27.10
2018-07-05T18:39:03.993Z,27.00
2018-07-05T18:41:43.736Z,26.90
2018-07-05T18:44:23.672Z,26.80
2018-07-05T18:47:03.514Z,26.80
2018-07-05T18:49:43.443Z,26.70
2018-07-05T18:52:23.367Z,26.70
2018-07-05T18:55:03.115Z,26.70
2018-07-05T18:57:43.679Z,26.60
2018-07-05T19:00:23.283Z,26.50
2018-07-05T19:03:02.885Z,26.40
2018-07-05T19:05:42.507Z,26.30
2018-07-05T19:08:22.355Z,26.20
2018-07-05T19:11:02.067Z,26.10
2018-07-05T19:13:41.741Z,26.00
2018-07-05T19:16:21.511Z,25.90
2018-07-05T19:19:01.091Z,25.90
2018-07-05T19:21:40.713Z,25.80
2018-07-05T19:24:20.596Z,25.70
2018-07-05T19:27:01.003Z,25.60
2018-07-05T19:29:40.678Z,25.60
2018-07-05T19:32:20.445Z,25.50
2018-07-05T19:37:35.314Z,25.30
2018-07-05T19:40:16.422Z,25.20
2018-07-05T19:42:56.196Z,25.20
2018-07-05T19:45:35.936Z,25.10
2018-07-05T19:48:15.604Z,24.90
2018-07-05T19:50:56.814Z,24.90
2018-07-05T19:53:36.537Z,24.80
2018-07-05T19:56:16.167Z,24.70
2018-07-05T19:58:55.784Z,24.60
2018-07-05T20:01:37.418Z,24.60
2018-07-05T20:04:17.328Z,24.60
2018-07-05T20:06:57.471Z,24.50
2018-07-05T20:09:36.994Z,24.40
2018-07-05T20:12:16.575Z,24.30
2018-07-05T20:14:56.502Z,24.20
2018-07-05T20:17:36.172Z,24.10
2018-07-05T20:20:15.750Z,24.00
2018-07-05T20:22:55.382Z,24.00
2018-07-05T20:25:34.984Z,24.00
2018-07-05T20:28:15.754Z,23.90
2018-07-05T20:30:55.338Z,23.90
2018-07-05T20:33:35.127Z,23.80
2018-07-05T20:36:14.921Z,23.70
2018-07-05T20:38:55.988Z,23.60
2018-07-05T20:41:35.746Z,23.60
2018-07-05T20:46:49.094Z,23.50
2018-07-05T20:54:35.964Z,23.30
2018-07-05T20:59:50.134Z,23.20
2018-07-05T21:02:30.099Z,23.10
2018-07-05T21:05:09.599Z,23.00
2018-07-05T21:07:51.784Z,23.00
2018-07-05T21:10:31.548Z,22.90
2018-07-05T21:13:12.014Z,22.90
2018-07-05T21:15:52.898Z,22.90
2018-07-05T21:18:33.661Z,22.90
2018-07-05T21:21:13.327Z,22.90
2018-07-05T21:23:54.148Z,22.80
2018-07-05T21:26:33.729Z,22.80
2018-07-05T21:29:13.544Z,22.70
2018-07-05T21:31:53.455Z,22.60
2018-07-05T21:34:33.110Z,22.60
2018-07-05T21:39:46.606Z,22.40
2018-07-05T21:42:27.200Z,22.30
2018-07-05T21:45:06.666Z,22.30
2018-07-05T21:47:46.300Z,22.20
2018-07-05T21:50:26.064Z,22.20
2018-07-05T21:53:05.750Z,22.10
2018-07-05T21:55:45.307Z,22.10
2018-07-05T21:58:25.198Z,22.00
2018-07-05T22:01:04.970Z,21.90
2018-07-05T22:03:44.749Z,21.90
2018-07-05T22:06:24.432Z,21.90
2018-07-05T22:09:04.777Z,21.90
2018-07-05T22:11:44.395Z,21.70
2018-07-05T22:14:24.285Z,21.70
2018-07-05T22:17:09.503Z,21.60
2018-07-05T22:19:54.535Z,21.50
2018-07-05T22:22:39.778Z,21.40
2018-07-05T22:25:24.969Z,21.30
2018-07-05T22:28:10.155Z,21.30
2018-07-05T22:30:55.623Z,21.20
2018-07-05T22:33:35.408Z,21.20
2018-07-05T22:36:15.036Z,21.10
2018-07-05T22:38:55.270Z,21.10
2018-07-05T22:41:35.188Z,21.00
2018-07-05T22:44:14.773Z,21.00
2018-07-05T22:46:54.418Z,20.90
2018-07-05T22:49:34.187Z,20.80
2018-07-05T22:52:13.891Z,20.80
2018-07-05T22:54:53.747Z,20.70
2018-07-05T22:57:33.544Z,20.70
2018-07-05T23:00:13.324Z,20.60
2018-07-05T23:02:52.935Z,20.50
2018-07-05T23:05:32.934Z,20.50
2018-07-05T23:08:12.736Z,20.40
2018-07-05T23:10:52.557Z,20.30
2018-07-05T23:13:32.206Z,20.30
2018-07-05T23:18:46.301Z,20.20
2018-07-05T23:21:26.076Z,20.10
2018-07-05T23:24:05.777Z,20.10
2018-07-05T23:26:46.041Z,20.00
2018-07-05T23:29:25.769Z,20.00
2018-07-05T23:32:05.464Z,19.90
2018-07-05T23:34:45.168Z,19.90
2018-07-05T23:37:24.915Z,19.90
2018-07-05T23:40:04.776Z,19.90
2018-07-05T23:42:44.401Z,19.90
2018-07-05T23:45:24.341Z,19.90
2018-07-05T23:48:03.923Z,19.90
2018-07-05T23:50:43.506Z,19.80
2018-07-05T23:53:23.820Z,19.80
2018-07-05T23:56:03.582Z,19.80
2018-07-05T23:58:43.229Z,19.80
